sensor_id;sensor_type;location;lat;lon;timestamp;temperature;humidity
16102;DHT22;56411;52.964;10.540;2022-11-15T00:00:00;5.40;99.90
16102;DHT22;56411;52.964;10.540;2022-11-15T00:02:27;5.30;99.90
16102;DHT22;56411;52.964;10.540;2022-11-15T00:04:56;5.20;99.90
16102;DHT22;56411;52.964;10.540;2022-11-15T00:07:23;5.10;99.90
16102;DHT22;56411;52.964;10.540;2022-11-15T00:09:50;4.90;99.90
16102;DHT22;56411;52.964;10.540;2022-11-15T00:12:17;4.80;99.90
16102;DHT22;56411;52.964;10.540;2022-11-15T00:14:44;4.80;99.90
16102;DHT22;56411;52.964;10.540;2022-11-15T00:17:11;4.70;99.90
16102;DHT22;56411;52.964;10.540;2022-11-15T00:19:38;4.70;99.90
16102;DHT22;56411;52.964;10.540;2022-11-15T00:22:07;4.80;99.90
16102;DHT22;56411;52.964;10.540;2022-11-15T00:24:34;4.80;99.90
16102;DHT22;56411;52.964;10.540;2022-11-15T00:27:01;4.60;99.90
16102;DHT22;56411;52.964;10.540;2022-11-15T00:29:28;4.60;99.90
16102;DHT22;56411;52.964;10.540;2022-11-15T00:31:55;4.40;99.90
16102;DHT22;56411;52.964;10.540;2022-11-15T00:34:22;4.30;99.90
16102;DHT22;56411;52.964;10.540;2022-11-15T00:36:49;4.20;99.90
16102;DHT22;56411;52.964;10.540;2022-11-15T00:39:18;4.10;99.90
16102;DHT22;56411;52.964;10.540;2022-11-15T00:41:45;4.10;99.90
16102;DHT22;56411;52.964;10.540;2022-11-15T00:44:13;4.10;99.90
16102;DHT22;56411;52.964;10.540;2022-11-15T00:46:40;3.90;99.90
16102;DHT22;56411;52.964;10.540;2022-11-15T00:49:07;4.00;99.90
16102;DHT22;56411;52.964;10.540;2022-11-15T00:51:34;4.00;99.90
16102;DHT22;56411;52.964;10.540;2022-11-15T00:54:02;4.10;99.90
16102;DHT22;56411;52.964;10.540;2022-11-15T00:56:30;4.10;99.90
16102;DHT22;56411;52.964;10.540;2022-11-15T00:58:57;4.10;99.90
16102;DHT22;56411;52.964;10.540;2022-11-15T01:01:24;3.90;99.90
16102;DHT22;56411;52.964;10.540;2022-11-15T01:03:51;3.80;99.90
16102;DHT22;56411;52.964;10.540;2022-11-15T01:06:18;3.70;99.90
16102;DHT22;56411;52.964;10.540;2022-11-15T01:08:45;3.60;99.90
16102;DHT22;56411;52.964;10.540;2022-11-15T01:11:12;3.60;99.90
16102;DHT22;56411;52.964;10.540;2022-11-15T01:13:41;3.60;99.90
16102;DHT22;56411;52.964;10.540;2022-11-15T01:16:10;3.70;99.90
16102;DHT22;56411;52.964;10.540;2022-11-15T01:18:37;3.80;99.90
16102;DHT22;56411;52.964;10.540;2022-11-15T01:21:06;3.80;99.90
16102;DHT22;56411;52.964;10.540;2022-11-15T01:23:33;3.80;99.90
16102;DHT22;56411;52.964;10.540;2022-11-15T01:26:00;3.70;99.90
16102;DHT22;56411;52.964;10.540;2022-11-15T01:28:30;3.60;99.90
16102;DHT22;56411;52.964;10.540;2022-11-15T01:31:00;3.50;99.90
16102;DHT22;56411;52.964;10.540;2022-11-15T01:33:27;3.40;99.90
16102;DHT22;56411;52.964;10.540;2022-11-15T01:35:55;3.30;99.90
16102;DHT22;56411;52.964;10.540;2022-11-15T01:38:22;3.30;99.90
16102;DHT22;56411;52.964;10.540;2022-11-15T01:40:49;3.20;99.90
16102;DHT22;56411;52.964;10.540;2022-11-15T01:43:21;3.20;99.90
16102;DHT22;56411;52.964;10.540;2022-11-15T01:45:50;3.20;99.90
16102;DHT22;56411;52.964;10.540;2022-11-15T01:48:22;3.30;99.90
16102;DHT22;56411;52.964;10.540;2022-11-15T01:50:50;3.40;99.90
16102;DHT22;56411;52.964;10.540;2022-11-15T01:53:19;3.20;99.90
16102;DHT22;56411;52.964;10.540;2022-11-15T01:55:48;3.10;99.90
16102;DHT22;56411;52.964;10.540;2022-11-15T01:58:15;3.20;99.90
16102;DHT22;56411;52.964;10.540;2022-11-15T02:00:42;3.10;99.90
16102;DHT22;56411;52.964;10.540;2022-11-15T02:03:09;3.10;99.90
16102;DHT22;56411;52.964;10.540;2022-11-15T02:05:38;3.30;99.90
16102;DHT22;56411;52.964;10.540;2022-11-15T02:08:06;3.20;99.90
16102;DHT22;56411;52.964;10.540;2022-11-15T02:10:45;3.20;99.90
16102;DHT22;56411;52.964;10.540;2022-11-15T02:13:13;3.20;99.90
16102;DHT22;56411;52.964;10.540;2022-11-15T02:15:46;3.10;99.90
16102;DHT22;56411;52.964;10.540;2022-11-15T02:18:21;3.00;99.90
16102;DHT22;56411;52.964;10.540;2022-11-15T02:21:17;3.10;99.90
16102;DHT22;56411;52.964;10.540;2022-11-15T02:24:16;3.30;99.90
16102;DHT22;56411;52.964;10.540;2022-11-15T02:30:03;3.40;99.90
16102;DHT22;56411;52.964;10.540;2022-11-15T02:32:38;3.30;99.90
16102;DHT22;56411;52.964;10.540;2022-11-15T02:35:15;3.40;99.90
16102;DHT22;56411;52.964;10.540;2022-11-15T02:37:50;3.40;99.90
16102;DHT22;56411;52.964;10.540;2022-11-15T02:40:26;3.50;99.90
16102;DHT22;56411;52.964;10.540;2022-11-15T02:43:00;3.50;99.90
16102;DHT22;56411;52.964;10.540;2022-11-15T02:45:49;3.70;99.90
16102;DHT22;56411;52.964;10.540;2022-11-15T02:48:21;3.70;99.90
16102;DHT22;56411;52.964;10.540;2022-11-15T02:50:49;3.70;99.90
16102;DHT22;56411;52.964;10.540;2022-11-15T02:53:16;3.70;99.90
16102;DHT22;56411;52.964;10.540;2022-11-15T02:55:45;3.70;99.90
16102;DHT22;56411;52.964;10.540;2022-11-15T02:58:27;3.70;99.90
16102;DHT22;56411;52.964;10.540;2022-11-15T03:01:00;3.70;99.90
16102;DHT22;56411;52.964;10.540;2022-11-15T03:03:46;3.60;99.90
16102;DHT22;56411;52.964;10.540;2022-11-15T03:06:23;3.40;99.90
16102;DHT22;56411;52.964;10.540;2022-11-15T03:09:01;3.30;99.90
16102;DHT22;56411;52.964;10.540;2022-11-15T03:11:33;3.40;99.90
16102;DHT22;56411;52.964;10.540;2022-11-15T03:14:10;3.40;99.90
16102;DHT22;56411;52.964;10.540;2022-11-15T03:16:44;3.30;99.90
16102;DHT22;56411;52.964;10.540;2022-11-15T03:19:22;3.30;99.90
16102;DHT22;56411;52.964;10.540;2022-11-15T03:21:52;3.20;99.90
16102;DHT22;56411;52.964;10.540;2022-11-15T03:24:23;3.00;99.90
16102;DHT22;56411;52.964;10.540;2022-11-15T03:26:53;3.00;99.90
16102;DHT22;56411;52.964;10.540;2022-11-15T03:29:24;3.00;99.90
16102;DHT22;56411;52.964;10.540;2022-11-15T03:31:57;3.10;99.90
16102;DHT22;56411;52.964;10.540;2022-11-15T03:34:29;3.20;99.90
16102;DHT22;56411;52.964;10.540;2022-11-15T03:36:59;3.40;99.90
16102;DHT22;56411;52.964;10.540;2022-11-15T03:39:27;3.30;99.90
16102;DHT22;56411;52.964;10.540;2022-11-15T03:42:04;3.30;99.90
16102;DHT22;56411;52.964;10.540;2022-11-15T03:44:40;3.40;99.90
16102;DHT22;56411;52.964;10.540;2022-11-15T03:47:15;3.40;99.90
16102;DHT22;56411;52.964;10.540;2022-11-15T03:49:50;3.20;99.90
16102;DHT22;56411;52.964;10.540;2022-11-15T03:52:18;3.20;99.90
16102;DHT22;56411;52.964;10.540;2022-11-15T03:54:54;3.20;99.90
16102;DHT22;56411;52.964;10.540;2022-11-15T03:57:21;3.20;99.90
16102;DHT22;56411;52.964;10.540;2022-11-15T03:59:48;3.20;99.90
16102;DHT22;56411;52.964;10.540;2022-11-15T04:02:16;3.30;99.90
16102;DHT22;56411;52.964;10.540;2022-11-15T04:04:45;3.30;99.90
16102;DHT22;56411;52.964;10.540;2022-11-15T04:07:12;3.30;99.90
16102;DHT22;56411;52.964;10.540;2022-11-15T04:09:39;3.30;99.90
16102;DHT22;56411;52.964;10.540;2022-11-15T04:12:20;3.30;99.90
16102;DHT22;56411;52.964;10.540;2022-11-15T04:14:56;3.40;99.90
16102;DHT22;56411;52.964;10.540;2022-11-15T04:17:38;3.60;99.90
16102;DHT22;56411;52.964;10.540;2022-11-15T04:20:10;3.60;99.90
16102;DHT22;56411;52.964;10.540;2022-11-15T04:22:56;3.50;99.90
16102;DHT22;56411;52.964;10.540;2022-11-15T04:25:41;3.50;99.90
16102;DHT22;56411;52.964;10.540;2022-11-15T04:28:09;3.40;99.90
16102;DHT22;56411;52.964;10.540;2022-11-15T04:30:36;3.50;99.90
16102;DHT22;56411;52.964;10.540;2022-11-15T04:33:03;3.40;99.90
16102;DHT22;56411;52.964;10.540;2022-11-15T04:35:32;3.50;99.90
16102;DHT22;56411;52.964;10.540;2022-11-15T04:38:00;3.30;99.90
16102;DHT22;56411;52.964;10.540;2022-11-15T04:40:26;3.40;99.90
16102;DHT22;56411;52.964;10.540;2022-11-15T04:42:53;3.40;99.90
16102;DHT22;56411;52.964;10.540;2022-11-15T04:45:20;3.40;99.90
16102;DHT22;56411;52.964;10.540;2022-11-15T04:47:47;3.30;99.90
16102;DHT22;56411;52.964;10.540;2022-11-15T04:50:15;3.30;99.90
16102;DHT22;56411;52.964;10.540;2022-11-15T04:52:50;3.20;99.90
16102;DHT22;56411;52.964;10.540;2022-11-15T04:55:17;3.30;99.90
16102;DHT22;56411;52.964;10.540;2022-11-15T04:57:44;3.30;99.90
16102;DHT22;56411;52.964;10.540;2022-11-15T05:00:13;3.40;99.90
16102;DHT22;56411;52.964;10.540;2022-11-15T05:02:40;3.50;99.90
16102;DHT22;56411;52.964;10.540;2022-11-15T05:05:25;3.60;99.90
16102;DHT22;56411;52.964;10.540;2022-11-15T05:07:53;3.60;99.90
16102;DHT22;56411;52.964;10.540;2022-11-15T05:10:21;3.60;99.90
16102;DHT22;56411;52.964;10.540;2022-11-15T05:12:48;3.60;99.90
16102;DHT22;56411;52.964;10.540;2022-11-15T05:15:15;3.60;99.90
16102;DHT22;56411;52.964;10.540;2022-11-15T05:17:42;3.60;99.90
16102;DHT22;56411;52.964;10.540;2022-11-15T05:20:10;3.70;99.90
16102;DHT22;56411;52.964;10.540;2022-11-15T05:22:37;3.70;99.90
16102;DHT22;56411;52.964;10.540;2022-11-15T05:25:07;3.70;99.90
16102;DHT22;56411;52.964;10.540;2022-11-15T05:27:34;3.70;99.90
16102;DHT22;56411;52.964;10.540;2022-11-15T05:30:01;3.70;99.90
16102;DHT22;56411;52.964;10.540;2022-11-15T05:32:29;3.70;99.90
16102;DHT22;56411;52.964;10.540;2022-11-15T05:34:56;3.60;99.90
16102;DHT22;56411;52.964;10.540;2022-11-15T05:37:23;3.50;99.90
16102;DHT22;56411;52.964;10.540;2022-11-15T05:39:50;3.50;99.90
16102;DHT22;56411;52.964;10.540;2022-11-15T05:42:19;3.40;99.90
16102;DHT22;56411;52.964;10.540;2022-11-15T05:44:48;3.30;99.90
16102;DHT22;56411;52.964;10.540;2022-11-15T05:47:18;3.30;99.90
16102;DHT22;56411;52.964;10.540;2022-11-15T05:49:46;3.20;99.90
16102;DHT22;56411;52.964;10.540;2022-11-15T05:52:17;3.10;99.90
16102;DHT22;56411;52.964;10.540;2022-11-15T05:54:46;3.00;99.90
16102;DHT22;56411;52.964;10.540;2022-11-15T05:57:15;3.00;99.90
16102;DHT22;56411;52.964;10.540;2022-11-15T05:59:43;3.00;99.90
16102;DHT22;56411;52.964;10.540;2022-11-15T06:02:11;3.00;99.90
16102;DHT22;56411;52.964;10.540;2022-11-15T06:04:38;3.10;99.90
16102;DHT22;56411;52.964;10.540;2022-11-15T06:07:05;3.10;99.90
16102;DHT22;56411;52.964;10.540;2022-11-15T06:09:32;3.10;99.90
16102;DHT22;56411;52.964;10.540;2022-11-15T06:12:00;3.10;99.90
16102;DHT22;56411;52.964;10.540;2022-11-15T06:14:27;3.00;99.90
16102;DHT22;56411;52.964;10.540;2022-11-15T06:16:56;3.00;99.90
16102;DHT22;56411;52.964;10.540;2022-11-15T06:19:24;3.00;99.90
16102;DHT22;56411;52.964;10.540;2022-11-15T06:21:51;3.00;99.90
16102;DHT22;56411;52.964;10.540;2022-11-15T06:24:18;3.00;99.90
16102;DHT22;56411;52.964;10.540;2022-11-15T06:26:45;3.10;99.90
16102;DHT22;56411;52.964;10.540;2022-11-15T06:29:12;3.10;99.90
16102;DHT22;56411;52.964;10.540;2022-11-15T06:31:39;3.10;99.90
16102;DHT22;56411;52.964;10.540;2022-11-15T06:34:07;3.20;99.90
16102;DHT22;56411;52.964;10.540;2022-11-15T06:36:35;3.20;99.90
16102;DHT22;56411;52.964;10.540;2022-11-15T06:39:03;3.20;99.90
16102;DHT22;56411;52.964;10.540;2022-11-15T06:41:29;3.30;99.90
16102;DHT22;56411;52.964;10.540;2022-11-15T06:43:57;3.40;99.90
16102;DHT22;56411;52.964;10.540;2022-11-15T06:46:24;3.50;99.90
16102;DHT22;56411;52.964;10.540;2022-11-15T06:48:51;3.60;99.90
16102;DHT22;56411;52.964;10.540;2022-11-15T06:51:20;3.60;99.90
16102;DHT22;56411;52.964;10.540;2022-11-15T06:53:47;3.70;99.90
16102;DHT22;56411;52.964;10.540;2022-11-15T06:56:14;3.80;99.90
16102;DHT22;56411;52.964;10.540;2022-11-15T06:58:42;3.90;99.90
16102;DHT22;56411;52.964;10.540;2022-11-15T07:01:11;4.00;99.90
16102;DHT22;56411;52.964;10.540;2022-11-15T07:03:40;4.10;99.90
16102;DHT22;56411;52.964;10.540;2022-11-15T07:06:09;4.10;99.90
16102;DHT22;56411;52.964;10.540;2022-11-15T07:08:38;4.20;99.90
16102;DHT22;56411;52.964;10.540;2022-11-15T07:11:08;4.20;99.90
16102;DHT22;56411;52.964;10.540;2022-11-15T07:13:36;4.20;99.90
16102;DHT22;56411;52.964;10.540;2022-11-15T07:16:04;4.30;99.90
16102;DHT22;56411;52.964;10.540;2022-11-15T07:18:34;4.20;99.90
16102;DHT22;56411;52.964;10.540;2022-11-15T07:21:02;4.20;99.90
16102;DHT22;56411;52.964;10.540;2022-11-15T07:23:29;4.20;99.90
16102;DHT22;56411;52.964;10.540;2022-11-15T07:25:58;4.20;99.90
16102;DHT22;56411;52.964;10.540;2022-11-15T07:28:26;4.20;99.90
16102;DHT22;56411;52.964;10.540;2022-11-15T07:30:53;4.20;99.90
16102;DHT22;56411;52.964;10.540;2022-11-15T07:33:21;4.30;99.90
16102;DHT22;56411;52.964;10.540;2022-11-15T07:35:48;4.30;99.90
16102;DHT22;56411;52.964;10.540;2022-11-15T07:38:15;4.40;99.90
16102;DHT22;56411;52.964;10.540;2022-11-15T07:40:45;4.40;99.90
16102;DHT22;56411;52.964;10.540;2022-11-15T07:43:14;4.40;99.90
16102;DHT22;56411;52.964;10.540;2022-11-15T07:46:04;4.50;99.90
16102;DHT22;56411;52.964;10.540;2022-11-15T07:48:34;4.50;99.90
16102;DHT22;56411;52.964;10.540;2022-11-15T07:51:02;4.60;99.90
16102;DHT22;56411;52.964;10.540;2022-11-15T07:53:29;4.60;99.90
16102;DHT22;56411;52.964;10.540;2022-11-15T07:55:56;4.70;99.90
16102;DHT22;56411;52.964;10.540;2022-11-15T07:58:25;4.70;99.90
16102;DHT22;56411;52.964;10.540;2022-11-15T08:00:52;4.80;99.90
16102;DHT22;56411;52.964;10.540;2022-11-15T08:03:19;4.90;99.90
16102;DHT22;56411;52.964;10.540;2022-11-15T08:05:50;4.90;99.90
16102;DHT22;56411;52.964;10.540;2022-11-15T08:08:18;5.00;99.90
16102;DHT22;56411;52.964;10.540;2022-11-15T08:10:45;5.10;99.90
16102;DHT22;56411;52.964;10.540;2022-11-15T08:13:12;5.10;99.90
16102;DHT22;56411;52.964;10.540;2022-11-15T08:15:41;5.20;99.90
16102;DHT22;56411;52.964;10.540;2022-11-15T08:18:11;5.30;99.90
16102;DHT22;56411;52.964;10.540;2022-11-15T08:20:39;5.40;99.90
16102;DHT22;56411;52.964;10.540;2022-11-15T08:23:07;5.50;99.90
16102;DHT22;56411;52.964;10.540;2022-11-15T08:25:35;5.60;99.90
16102;DHT22;56411;52.964;10.540;2022-11-15T08:28:05;5.70;99.90
16102;DHT22;56411;52.964;10.540;2022-11-15T08:30:35;5.80;99.90
16102;DHT22;56411;52.964;10.540;2022-11-15T08:33:04;5.90;99.90
16102;DHT22;56411;52.964;10.540;2022-11-15T08:35:32;5.90;99.90
16102;DHT22;56411;52.964;10.540;2022-11-15T08:37:59;6.00;99.90
16102;DHT22;56411;52.964;10.540;2022-11-15T08:40:26;6.00;99.90
16102;DHT22;56411;52.964;10.540;2022-11-15T08:42:53;6.10;99.90
16102;DHT22;56411;52.964;10.540;2022-11-15T08:45:20;6.10;99.90
16102;DHT22;56411;52.964;10.540;2022-11-15T08:47:48;6.10;99.90
16102;DHT22;56411;52.964;10.540;2022-11-15T08:50:17;6.20;99.90
16102;DHT22;56411;52.964;10.540;2022-11-15T08:52:44;6.20;99.90
16102;DHT22;56411;52.964;10.540;2022-11-15T08:55:13;6.30;99.90
16102;DHT22;56411;52.964;10.540;2022-11-15T08:57:41;6.20;99.90
16102;DHT22;56411;52.964;10.540;2022-11-15T09:00:09;6.20;99.90
16102;DHT22;56411;52.964;10.540;2022-11-15T09:02:38;6.20;99.90
16102;DHT22;56411;52.964;10.540;2022-11-15T09:05:07;6.20;99.90
16102;DHT22;56411;52.964;10.540;2022-11-15T09:07:35;6.30;99.90
16102;DHT22;56411;52.964;10.540;2022-11-15T09:10:04;6.20;99.90
16102;DHT22;56411;52.964;10.540;2022-11-15T09:12:31;6.30;99.90
16102;DHT22;56411;52.964;10.540;2022-11-15T09:14:58;6.30;99.90
16102;DHT22;56411;52.964;10.540;2022-11-15T09:17:25;6.40;99.90
16102;DHT22;56411;52.964;10.540;2022-11-15T09:19:52;6.40;99.90
16102;DHT22;56411;52.964;10.540;2022-11-15T09:22:19;6.40;99.90
16102;DHT22;56411;52.964;10.540;2022-11-15T09:24:48;6.50;99.90
16102;DHT22;56411;52.964;10.540;2022-11-15T09:27:15;6.50;99.90
16102;DHT22;56411;52.964;10.540;2022-11-15T09:29:42;6.60;99.90
16102;DHT22;56411;52.964;10.540;2022-11-15T09:32:10;6.80;99.90
16102;DHT22;56411;52.964;10.540;2022-11-15T09:34:37;6.90;99.90
16102;DHT22;56411;52.964;10.540;2022-11-15T09:37:04;7.00;99.90
16102;DHT22;56411;52.964;10.540;2022-11-15T09:39:31;7.10;99.90
16102;DHT22;56411;52.964;10.540;2022-11-15T09:42:14;7.20;99.90
16102;DHT22;56411;52.964;10.540;2022-11-15T09:44:57;7.50;99.90
16102;DHT22;56411;52.964;10.540;2022-11-15T09:48:03;7.60;99.90
16102;DHT22;56411;52.964;10.540;2022-11-15T09:50:38;7.80;99.90
16102;DHT22;56411;52.964;10.540;2022-11-15T09:53:11;8.10;99.90
16102;DHT22;56411;52.964;10.540;2022-11-15T09:55:46;8.30;99.90
16102;DHT22;56411;52.964;10.540;2022-11-15T09:58:24;8.50;99.90
16102;DHT22;56411;52.964;10.540;2022-11-15T10:00:53;8.90;99.90
16102;DHT22;56411;52.964;10.540;2022-11-15T10:03:26;9.20;99.90
16102;DHT22;56411;52.964;10.540;2022-11-15T10:05:56;9.70;99.90
16102;DHT22;56411;52.964;10.540;2022-11-15T10:08:43;10.00;99.90
16102;DHT22;56411;52.964;10.540;2022-11-15T10:11:17;10.30;99.90
16102;DHT22;56411;52.964;10.540;2022-11-15T10:13:49;10.70;99.90
16102;DHT22;56411;52.964;10.540;2022-11-15T10:16:38;11.20;99.90
16102;DHT22;56411;52.964;10.540;2022-11-15T10:19:13;11.80;99.90
16102;DHT22;56411;52.964;10.540;2022-11-15T10:21:54;12.40;99.90
16102;DHT22;56411;52.964;10.540;2022-11-15T10:24:26;12.90;99.90
16102;DHT22;56411;52.964;10.540;2022-11-15T10:26:55;13.30;99.90
16102;DHT22;56411;52.964;10.540;2022-11-15T10:29:24;13.60;99.90
16102;DHT22;56411;52.964;10.540;2022-11-15T10:31:52;14.00;99.90
16102;DHT22;56411;52.964;10.540;2022-11-15T10:34:20;14.50;99.90
16102;DHT22;56411;52.964;10.540;2022-11-15T10:36:55;14.90;99.90
16102;DHT22;56411;52.964;10.540;2022-11-15T10:39:23;15.30;99.90
16102;DHT22;56411;52.964;10.540;2022-11-15T10:41:51;15.60;99.90
16102;DHT22;56411;52.964;10.540;2022-11-15T10:44:21;15.90;99.90
16102;DHT22;56411;52.964;10.540;2022-11-15T10:50:03;16.10;99.90
16102;DHT22;56411;52.964;10.540;2022-11-15T10:52:34;16.50;99.90
16102;DHT22;56411;52.964;10.540;2022-11-15T10:55:05;16.70;99.90
16102;DHT22;56411;52.964;10.540;2022-11-15T10:57:50;16.60;99.90
16102;DHT22;56411;52.964;10.540;2022-11-15T11:00:29;16.70;99.90
16102;DHT22;56411;52.964;10.540;2022-11-15T11:03:00;16.40;99.90
16102;DHT22;56411;52.964;10.540;2022-11-15T11:05:30;16.30;99.90
16102;DHT22;56411;52.964;10.540;2022-11-15T11:08:00;16.20;99.90
16102;DHT22;56411;52.964;10.540;2022-11-15T11:10:28;16.20;99.90
16102;DHT22;56411;52.964;10.540;2022-11-15T11:12:55;15.90;99.90
16102;DHT22;56411;52.964;10.540;2022-11-15T11:15:25;16.10;99.90
16102;DHT22;56411;52.964;10.540;2022-11-15T11:18:01;16.40;99.90
16102;DHT22;56411;52.964;10.540;2022-11-15T11:20:36;16.80;99.90
16102;DHT22;56411;52.964;10.540;2022-11-15T11:23:19;17.00;99.90
16102;DHT22;56411;52.964;10.540;2022-11-15T11:26:09;17.10;99.90
16102;DHT22;56411;52.964;10.540;2022-11-15T11:28:46;17.00;99.90
16102;DHT22;56411;52.964;10.540;2022-11-15T11:31:24;16.70;99.90
16102;DHT22;56411;52.964;10.540;2022-11-15T11:34:03;16.40;99.90
16102;DHT22;56411;52.964;10.540;2022-11-15T11:36:39;16.50;99.90
16102;DHT22;56411;52.964;10.540;2022-11-15T11:39:20;16.20;99.90
16102;DHT22;56411;52.964;10.540;2022-11-15T11:41:56;16.10;99.90
16102;DHT22;56411;52.964;10.540;2022-11-15T11:44:33;16.30;99.90
16102;DHT22;56411;52.964;10.540;2022-11-15T11:47:03;16.40;99.90
16102;DHT22;56411;52.964;10.540;2022-11-15T11:49:37;16.50;99.90
16102;DHT22;56411;52.964;10.540;2022-11-15T11:52:11;16.60;99.90
16102;DHT22;56411;52.964;10.540;2022-11-15T11:54:48;16.60;99.90
16102;DHT22;56411;52.964;10.540;2022-11-15T11:57:25;16.40;99.90
16102;DHT22;56411;52.964;10.540;2022-11-15T12:00:03;15.90;99.90
16102;DHT22;56411;52.964;10.540;2022-11-15T12:02:37;15.70;99.90
16102;DHT22;56411;52.964;10.540;2022-11-15T12:05:13;15.70;99.90
16102;DHT22;56411;52.964;10.540;2022-11-15T12:07:44;15.80;99.90
16102;DHT22;56411;52.964;10.540;2022-11-15T12:10:22;15.60;99.90
16102;DHT22;56411;52.964;10.540;2022-11-15T12:12:56;15.50;99.90
16102;DHT22;56411;52.964;10.540;2022-11-15T12:15:28;15.40;99.90
16102;DHT22;56411;52.964;10.540;2022-11-15T12:18:00;15.30;99.90
16102;DHT22;56411;52.964;10.540;2022-11-15T12:20:33;15.20;99.90
16102;DHT22;56411;52.964;10.540;2022-11-15T12:23:06;15.10;99.90
16102;DHT22;56411;52.964;10.540;2022-11-15T12:25:43;15.10;99.90
16102;DHT22;56411;52.964;10.540;2022-11-15T12:28:14;15.00;99.90
16102;DHT22;56411;52.964;10.540;2022-11-15T12:30:46;15.10;99.90
16102;DHT22;56411;52.964;10.540;2022-11-15T12:33:36;15.10;99.90
16102;DHT22;56411;52.964;10.540;2022-11-15T12:36:09;15.30;99.90
16102;DHT22;56411;52.964;10.540;2022-11-15T12:38:55;15.50;99.90
16102;DHT22;56411;52.964;10.540;2022-11-15T12:41:24;15.80;99.90
16102;DHT22;56411;52.964;10.540;2022-11-15T12:43:52;15.90;99.90
16102;DHT22;56411;52.964;10.540;2022-11-15T12:49:43;15.50;99.90
16102;DHT22;56411;52.964;10.540;2022-11-15T12:52:15;15.30;99.90
16102;DHT22;56411;52.964;10.540;2022-11-15T12:55:00;15.10;99.90
16102;DHT22;56411;52.964;10.540;2022-11-15T12:57:31;15.00;99.90
16102;DHT22;56411;52.964;10.540;2022-11-15T13:00:00;14.90;99.90
16102;DHT22;56411;52.964;10.540;2022-11-15T13:02:30;15.00;99.90
16102;DHT22;56411;52.964;10.540;2022-11-15T13:08:00;15.10;99.90
16102;DHT22;56411;52.964;10.540;2022-11-15T13:10:31;15.20;99.90
16102;DHT22;56411;52.964;10.540;2022-11-15T13:13:00;15.20;99.90
16102;DHT22;56411;52.964;10.540;2022-11-15T13:15:34;15.20;99.90
16102;DHT22;56411;52.964;10.540;2022-11-15T13:21:03;14.80;99.90
16102;DHT22;56411;52.964;10.540;2022-11-15T13:23:55;14.50;99.90
16102;DHT22;56411;52.964;10.540;2022-11-15T13:26:22;14.30;99.90
16102;DHT22;56411;52.964;10.540;2022-11-15T13:28:51;14.10;99.90
16102;DHT22;56411;52.964;10.540;2022-11-15T13:31:30;13.90;99.90
16102;DHT22;56411;52.964;10.540;2022-11-15T13:34:00;13.70;99.90
16102;DHT22;56411;52.964;10.540;2022-11-15T13:36:30;13.60;99.90
16102;DHT22;56411;52.964;10.540;2022-11-15T13:39:04;13.60;99.90
16102;DHT22;56411;52.964;10.540;2022-11-15T13:41:32;13.50;99.90
16102;DHT22;56411;52.964;10.540;2022-11-15T13:44:01;13.50;99.90
16102;DHT22;56411;52.964;10.540;2022-11-15T13:46:30;13.40;99.90
16102;DHT22;56411;52.964;10.540;2022-11-15T13:48:59;13.40;99.90
16102;DHT22;56411;52.964;10.540;2022-11-15T13:51:35;13.30;99.90
16102;DHT22;56411;52.964;10.540;2022-11-15T13:54:12;13.30;99.90
16102;DHT22;56411;52.964;10.540;2022-11-15T13:56:43;13.10;99.90
16102;DHT22;56411;52.964;10.540;2022-11-15T13:59:15;13.10;99.90
16102;DHT22;56411;52.964;10.540;2022-11-15T14:01:44;13.00;99.90
16102;DHT22;56411;52.964;10.540;2022-11-15T14:04:13;13.00;99.90
16102;DHT22;56411;52.964;10.540;2022-11-15T14:06:45;12.90;99.90
16102;DHT22;56411;52.964;10.540;2022-11-15T14:09:32;12.90;99.90
16102;DHT22;56411;52.964;10.540;2022-11-15T14:12:01;12.80;99.90
16102;DHT22;56411;52.964;10.540;2022-11-15T14:14:29;12.70;99.90
16102;DHT22;56411;52.964;10.540;2022-11-15T14:16:58;12.60;99.90
16102;DHT22;56411;52.964;10.540;2022-11-15T14:19:37;12.50;99.90
16102;DHT22;56411;52.964;10.540;2022-11-15T14:22:17;12.40;99.90
16102;DHT22;56411;52.964;10.540;2022-11-15T14:25:13;12.40;99.90
16102;DHT22;56411;52.964;10.540;2022-11-15T14:27:41;12.30;99.90
16102;DHT22;56411;52.964;10.540;2022-11-15T14:30:13;12.20;99.90
16102;DHT22;56411;52.964;10.540;2022-11-15T14:32:44;12.10;99.90
16102;DHT22;56411;52.964;10.540;2022-11-15T14:35:15;12.00;99.90
16102;DHT22;56411;52.964;10.540;2022-11-15T14:37:43;12.00;99.90
16102;DHT22;56411;52.964;10.540;2022-11-15T14:40:14;11.90;99.90
16102;DHT22;56411;52.964;10.540;2022-11-15T14:42:42;11.90;99.90
16102;DHT22;56411;52.964;10.540;2022-11-15T14:45:12;11.80;99.90
16102;DHT22;56411;52.964;10.540;2022-11-15T14:47:40;11.80;99.90
16102;DHT22;56411;52.964;10.540;2022-11-15T14:50:11;11.80;99.90
16102;DHT22;56411;52.964;10.540;2022-11-15T14:52:39;11.80;99.90
16102;DHT22;56411;52.964;10.540;2022-11-15T14:55:15;11.80;99.90
16102;DHT22;56411;52.964;10.540;2022-11-15T14:57:44;11.70;99.90
16102;DHT22;56411;52.964;10.540;2022-11-15T15:00:13;11.70;99.90
16102;DHT22;56411;52.964;10.540;2022-11-15T15:02:41;11.60;99.90
16102;DHT22;56411;52.964;10.540;2022-11-15T15:05:17;11.50;99.90
16102;DHT22;56411;52.964;10.540;2022-11-15T15:07:45;11.40;99.90
16102;DHT22;56411;52.964;10.540;2022-11-15T15:10:14;11.30;99.90
16102;DHT22;56411;52.964;10.540;2022-11-15T15:12:42;11.10;99.90
16102;DHT22;56411;52.964;10.540;2022-11-15T15:15:14;11.10;99.90
16102;DHT22;56411;52.964;10.540;2022-11-15T15:17:42;10.90;99.90
16102;DHT22;56411;52.964;10.540;2022-11-15T15:20:10;10.80;99.90
16102;DHT22;56411;52.964;10.540;2022-11-15T15:22:37;10.70;99.90
16102;DHT22;56411;52.964;10.540;2022-11-15T15:25:21;10.60;99.90
16102;DHT22;56411;52.964;10.540;2022-11-15T15:27:49;10.50;99.90
16102;DHT22;56411;52.964;10.540;2022-11-15T15:30:17;10.30;99.90
16102;DHT22;56411;52.964;10.540;2022-11-15T15:32:44;10.30;99.90
16102;DHT22;56411;52.964;10.540;2022-11-15T15:35:12;10.20;99.90
16102;DHT22;56411;52.964;10.540;2022-11-15T15:37:40;10.10;99.90
16102;DHT22;56411;52.964;10.540;2022-11-15T15:40:13;10.10;99.90
16102;DHT22;56411;52.964;10.540;2022-11-15T15:42:43;10.10;99.90
16102;DHT22;56411;52.964;10.540;2022-11-15T15:45:10;10.00;99.90
16102;DHT22;56411;52.964;10.540;2022-11-15T15:47:38;10.10;99.90
16102;DHT22;56411;52.964;10.540;2022-11-15T15:50:16;10.10;99.90
16102;DHT22;56411;52.964;10.540;2022-11-15T15:52:44;10.10;99.90
16102;DHT22;56411;52.964;10.540;2022-11-15T15:55:11;10.10;99.90
16102;DHT22;56411;52.964;10.540;2022-11-15T15:57:38;10.10;99.90
16102;DHT22;56411;52.964;10.540;2022-11-15T16:00:09;10.10;99.90
16102;DHT22;56411;52.964;10.540;2022-11-15T16:02:42;10.10;99.90